Terminal Aerodrome Forecast
Issued by NWS Twin Cities, MN

Home | Current Version | Previous Version | Graphics & Text | Print | Product List | Glossary On
Versions: 1 2 3 4 5 6 7 8 9 10 11 12 13 14 15 16 17 18 19 20 21 22 23 24 25 26
000
FTUS43 KMPX 271737
TAFMSP
TAF
KMSP 271737Z 2718/2824 VRB03KT P6SM SKC
     FM271900 19004KT P6SM SCT120
     FM280500 VRB03KT P6SM SKC
     FM281300 19005KT P6SM SCT100
     FM281600 17009G17KT P6SM FEW100=

USA.gov is the U.S. government's official web portal to all federal, state and local government web resources and services.